Pagina principale
METAR-TAF:

Aeroporti :

Genova, Italia

Aeroporto di Genova-Sestri

latitudine: 44-25N, longitudine: 008-51E, altezza: 2 m

Osservazione

Il bollettino è stato emesso 36 minuti fa, alle 16:20 UTC
Vento 7 kt da sud
Temperature 12°C
Umidità 35%
Pressione 1008 hPa
Visibilità 10 km o più
nessuna nube inferiore a 1500 m e nessun cumulonembo

METAR: LIMJ 111620Z 19007KT CAVOK 12/M03 Q1008

Ora: 17:56 (16:56 UTC)

Previsione

Il bollettino è stato emesso 5 ore e 56 minuti fa, alle 11:00 UTC
Previsione valida dal 11 alle 12 UTC al 12 alle 12 UTC
Vento 8 kt da sud/sud-est
Visibilità 10 km o più
Nubi sparse ad un'altezza di 6000 ft
Evoluzione graduale
dal 11 alle 18 UTC al 11 alle 21 UTC
Vento 10 kt da nord/nord-est

TAF: LIMJ 111100Z 1112/1212 16008KT 9999 SCT060 BECMG 1118/1121 02010KT

METAR-TAF

Osservazioni e previsioni meteorologiche di più di 4000 aeroporti (messaggi METAR e TAF).

Le stazioni disponibili sono rappresentate dai dischi gialli e rossi sulla carta.

Puntare il mouse per vedere il nome della stazione.

Clicca sopra per visualizzare le osservazioni e previsioni meteorologiche.

Per cambiare la mappa : fare clic sui pulsanti verdi con una croce nera per ingrandire, il pulsante verde con un trattino per diminuire, o sulla freccia verde per le mappe adiacenti.


METAR-TAF: